createdAt,value
2019-05-15T00:01:29.617Z,50.50
2019-05-15T00:03:59.129Z,50.30
2019-05-15T00:06:28.757Z,50.70
2019-05-15T00:08:58.900Z,50.60
2019-05-15T00:11:28.830Z,50.60
2019-05-15T00:13:59.319Z,50.50
2019-05-15T00:16:29.139Z,50.70
2019-05-15T00:18:59.222Z,50.40
2019-05-15T00:21:28.989Z,50.70
2019-05-15T00:23:58.802Z,50.70
2019-05-15T00:26:30.002Z,50.60
2019-05-15T00:29:11.728Z,50.80
2019-05-15T00:31:30.944Z,50.80
2019-05-15T00:34:00.457Z,50.90
2019-05-15T00:36:29.962Z,51.00
2019-05-15T00:38:59.512Z,51.10
2019-05-15T00:41:29.068Z,51.70
2019-05-15T00:43:58.615Z,50.90
2019-05-15T00:46:29.054Z,51.10
2019-05-15T00:48:59.228Z,51.00
2019-05-15T00:51:28.743Z,51.30
2019-05-15T00:53:58.949Z,51.10
2019-05-15T00:56:29.534Z,51.20
2019-05-15T00:58:59.988Z,51.30
2019-05-15T01:01:29.360Z,51.30
2019-05-15T01:03:58.835Z,51.20
2019-05-15T01:06:28.548Z,51.40
2019-05-15T01:08:59.195Z,51.60
2019-05-15T01:11:28.621Z,51.40
2019-05-15T01:13:58.474Z,51.40
2019-05-15T01:16:28.236Z,51.60
2019-05-15T01:18:58.701Z,52.20
2019-05-15T01:21:28.301Z,51.70
2019-05-15T01:23:58.932Z,51.50
2019-05-15T01:26:28.475Z,51.60
2019-05-15T01:28:58.381Z,51.70
2019-05-15T01:31:28.582Z,51.90
2019-05-15T01:33:58.440Z,52.40
2019-05-15T01:36:28.791Z,51.80
2019-05-15T01:38:58.519Z,51.80
2019-05-15T01:41:28.262Z,52.10
2019-05-15T01:43:58.200Z,52.00
2019-05-15T01:46:28.551Z,51.70
2019-05-15T01:48:58.636Z,52.00
2019-05-15T01:51:48.008Z,51.90
2019-05-15T01:54:18.677Z,52.10
2019-05-15T01:56:49.431Z,51.80
2019-05-15T01:59:33.340Z,52.20
2019-05-15T02:02:02.732Z,52.10
2019-05-15T02:04:32.183Z,52.30
2019-05-15T02:07:01.582Z,52.20
2019-05-15T02:09:32.039Z,52.50
2019-05-15T02:12:01.428Z,52.40
2019-05-15T02:14:30.823Z,52.20
2019-05-15T02:17:00.211Z,52.50
2019-05-15T02:19:29.603Z,52.50
2019-05-15T02:21:58.989Z,52.60
2019-05-15T02:24:28.572Z,52.30
2019-05-15T02:26:59.210Z,52.20
2019-05-15T02:29:28.772Z,52.40
2019-05-15T02:31:59.450Z,52.50
2019-05-15T02:34:30.482Z,52.50
2019-05-15T02:37:00.510Z,52.50
2019-05-15T02:39:29.996Z,52.50
2019-05-15T02:41:59.664Z,52.40
2019-05-15T02:44:29.453Z,52.50
2019-05-15T02:46:59.085Z,52.30
2019-05-15T02:49:30.284Z,52.50
2019-05-15T02:52:00.393Z,52.30
2019-05-15T02:57:20.527Z,52.60
2019-05-15T02:59:50.135Z,52.50
2019-05-15T03:02:19.557Z,52.60
2019-05-15T03:04:50.230Z,52.70
2019-05-15T03:07:19.668Z,52.60
2019-05-15T03:09:49.825Z,52.50
2019-05-15T03:12:19.783Z,52.60
2019-05-15T03:14:49.455Z,52.60
2019-05-15T03:17:19.184Z,52.50
2019-05-15T03:19:49.710Z,52.70
2019-05-15T03:22:19.810Z,52.40
2019-05-15T03:24:50.269Z,52.50
2019-05-15T03:27:21.140Z,52.30
2019-05-15T03:29:50.515Z,52.50
2019-05-15T03:32:32.259Z,52.30
2019-05-15T03:34:56.624Z,52.60
2019-05-15T03:37:22.959Z,52.30
2019-05-15T03:39:52.748Z,52.50
2019-05-15T03:42:22.211Z,52.50
2019-05-15T03:44:51.716Z,52.80
2019-05-15T03:47:21.166Z,52.80
2019-05-15T03:49:50.556Z,52.80
2019-05-15T03:52:21.015Z,52.50
2019-05-15T03:54:50.473Z,52.60
2019-05-15T03:57:22.955Z,52.60
2019-05-15T03:59:51.152Z,52.60
2019-05-15T04:02:20.611Z,52.30
2019-05-15T04:04:50.443Z,53.00
2019-05-15T04:07:20.064Z,52.40
2019-05-15T04:09:50.486Z,52.30
2019-05-15T04:12:19.893Z,51.90
2019-05-15T04:14:50.059Z,52.00
2019-05-15T04:17:20.028Z,52.10
2019-05-15T04:20:10.439Z,51.90
2019-05-15T04:22:40.683Z,52.40
2019-05-15T04:25:11.208Z,51.80
2019-05-15T04:27:43.009Z,51.50
2019-05-15T04:30:13.229Z,51.80
2019-05-15T04:32:43.756Z,52.50
2019-05-15T04:35:13.648Z,51.80
2019-05-15T04:37:43.109Z,51.60
2019-05-15T04:40:12.920Z,51.70
2019-05-15T04:42:42.324Z,51.50
2019-05-15T04:45:11.933Z,51.60
2019-05-15T04:47:41.393Z,51.40
2019-05-15T04:50:10.999Z,51.50
2019-05-15T04:52:43.243Z,51.20
2019-05-15T04:55:12.303Z,51.20
2019-05-15T04:57:41.701Z,50.70
2019-05-15T05:00:12.407Z,50.50
2019-05-15T05:02:41.800Z,51.00
2019-05-15T05:05:11.868Z,50.40
2019-05-15T05:07:41.989Z,49.90
2019-05-15T05:10:11.503Z,50.10
2019-05-15T05:12:42.280Z,49.80
2019-05-15T05:15:13.197Z,49.60
2019-05-15T05:17:42.585Z,49.50
2019-05-15T05:20:12.060Z,49.60
2019-05-15T05:22:41.506Z,49.50
2019-05-15T05:25:12.418Z,49.30
2019-05-15T05:27:41.800Z,49.20
2019-05-15T05:30:11.249Z,48.70
2019-05-15T05:32:40.640Z,49.50
2019-05-15T05:35:10.501Z,49.40
2019-05-15T05:37:40.321Z,48.20
2019-05-15T05:40:10.340Z,48.20
2019-05-15T05:42:39.724Z,48.70
2019-05-15T05:45:09.682Z,48.20
2019-05-15T05:47:39.106Z,47.70
2019-05-15T05:50:08.941Z,47.90
2019-05-15T05:52:39.038Z,47.50
2019-05-15T05:55:09.809Z,47.60
2019-05-15T05:57:39.203Z,46.60
2019-05-15T06:00:09.649Z,47.00
2019-05-15T06:02:46.991Z,46.60
2019-05-15T06:05:10.354Z,46.70
2019-05-15T06:07:39.748Z,46.90
2019-05-15T06:10:09.271Z,47.10
2019-05-15T06:12:39.167Z,47.40
2019-05-15T06:15:09.227Z,47.20
2019-05-15T06:17:39.468Z,47.40
2019-05-15T06:20:09.240Z,46.80
2019-05-15T06:22:38.954Z,46.70
2019-05-15T06:25:11.293Z,46.70
2019-05-15T06:27:39.720Z,47.40
2019-05-15T06:30:15.031Z,46.40
2019-05-15T06:32:40.836Z,46.10
2019-05-15T06:35:10.856Z,46.50
2019-05-15T06:37:40.255Z,46.10
2019-05-15T06:40:09.718Z,46.30
2019-05-15T06:42:53.195Z,45.80
2019-05-15T06:45:25.184Z,45.60
2019-05-15T06:47:54.554Z,45.30
2019-05-15T06:50:38.042Z,45.30
2019-05-15T06:53:10.441Z,45.40
2019-05-15T06:55:38.799Z,44.80
2019-05-15T06:58:09.191Z,44.70
2019-05-15T07:00:39.273Z,45.10
2019-05-15T07:03:20.144Z,44.60
2019-05-15T07:05:39.947Z,44.10
2019-05-15T07:08:09.358Z,43.70
2019-05-15T07:10:38.814Z,44.40
2019-05-15T07:13:08.847Z,44.30
2019-05-15T07:15:38.578Z,44.00
2019-05-15T07:18:08.737Z,43.90
2019-05-15T07:20:39.048Z,44.50
2019-05-15T07:23:09.772Z,43.40
2019-05-15T07:25:39.280Z,43.50
2019-05-15T07:28:08.926Z,43.30
2019-05-15T07:30:41.181Z,42.80
2019-05-15T07:33:09.635Z,42.50
2019-05-15T07:35:39.035Z,41.90
2019-05-15T07:38:08.413Z,42.10
2019-05-15T07:40:38.582Z,41.60
2019-05-15T07:43:09.510Z,41.30
2019-05-15T07:45:43.700Z,41.40
2019-05-15T07:48:10.120Z,41.10
2019-05-15T07:50:39.571Z,40.70
2019-05-15T07:53:08.958Z,40.40
2019-05-15T07:55:39.400Z,39.80
2019-05-15T07:58:08.975Z,38.80
2019-05-15T08:00:39.410Z,39.20
2019-05-15T08:03:10.256Z,39.10
2019-05-15T08:05:55.078Z,39.00
2019-05-15T08:08:12.191Z,38.30
2019-05-15T08:10:41.661Z,38.20
2019-05-15T08:13:11.117Z,38.20
2019-05-15T08:15:40.507Z,37.90
2019-05-15T08:18:12.928Z,38.00
2019-05-15T08:20:41.059Z,37.50
2019-05-15T08:23:10.448Z,37.40
2019-05-15T08:25:39.920Z,37.10
2019-05-15T08:28:09.385Z,36.70
2019-05-15T08:30:39.070Z,37.40
2019-05-15T08:33:08.596Z,37.90
2019-05-15T08:35:38.649Z,37.50
2019-05-15T08:38:08.805Z,36.80
2019-05-15T08:40:41.036Z,36.30
2019-05-15T08:43:11.469Z,35.70
2019-05-15T08:45:41.052Z,35.90
2019-05-15T08:48:10.445Z,35.10
2019-05-15T08:50:39.904Z,35.50
2019-05-15T08:53:09.291Z,35.90
2019-05-15T08:55:39.205Z,35.70
2019-05-15T08:58:13.719Z,34.90
2019-05-15T09:00:43.762Z,34.80
2019-05-15T09:03:11.001Z,34.70
2019-05-15T09:05:40.399Z,34.60
2019-05-15T09:08:09.788Z,35.00
2019-05-15T09:10:39.169Z,34.90
2019-05-15T09:13:09.597Z,35.00
2019-05-15T09:15:39.696Z,35.50
2019-05-15T09:18:16.023Z,35.30
2019-05-15T09:20:40.572Z,35.30
2019-05-15T09:23:09.952Z,35.80
2019-05-15T09:25:39.336Z,35.00
2019-05-15T09:28:08.815Z,35.40
2019-05-15T09:30:39.088Z,35.10
2019-05-15T09:33:08.882Z,35.50
2019-05-15T09:35:39.375Z,34.40
2019-05-15T09:38:09.505Z,35.20
2019-05-15T09:40:45.938Z,34.80
2019-05-15T09:43:11.123Z,35.00
2019-05-15T09:45:40.963Z,35.40
2019-05-15T09:48:14.501Z,35.20
2019-05-15T09:50:41.524Z,35.30
2019-05-15T09:53:20.400Z,35.40
2019-05-15T09:55:50.006Z,35.90
2019-05-15T09:58:20.943Z,35.70
2019-05-15T10:00:52.931Z,35.20
2019-05-15T10:03:22.079Z,35.80
2019-05-15T10:05:51.618Z,35.00
2019-05-15T10:08:21.640Z,35.40
2019-05-15T10:10:51.282Z,35.40
2019-05-15T10:13:20.675Z,35.90
2019-05-15T10:15:51.013Z,35.80
2019-05-15T10:18:21.865Z,35.30
2019-05-15T10:20:52.112Z,35.30
2019-05-15T10:23:21.648Z,35.10
2019-05-15T10:25:51.144Z,35.20
2019-05-15T10:28:20.602Z,35.00
2019-05-15T10:30:50.143Z,35.30
2019-05-15T10:33:20.666Z,34.90
2019-05-15T10:35:50.099Z,34.90
2019-05-15T10:38:19.679Z,34.80
2019-05-15T10:41:03.779Z,34.80
2019-05-15T10:43:21.070Z,35.30
2019-05-15T10:45:54.475Z,35.30
2019-05-15T10:48:21.853Z,35.10
2019-05-15T10:50:52.209Z,35.50
2019-05-15T10:53:23.140Z,34.70
2019-05-15T10:55:52.520Z,34.40
2019-05-15T10:58:22.475Z,35.10
2019-05-15T11:00:52.228Z,35.00
2019-05-15T11:03:21.671Z,34.90
2019-05-15T11:05:51.128Z,34.70
2019-05-15T11:08:20.497Z,33.70
2019-05-15T11:10:50.112Z,34.70
2019-05-15T11:13:19.637Z,33.70
2019-05-15T11:15:49.530Z,33.30
2019-05-15T11:18:19.173Z,33.00
2019-05-15T11:20:49.030Z,33.10
2019-05-15T11:23:19.928Z,32.80
2019-05-15T11:25:49.874Z,33.30
2019-05-15T11:28:20.366Z,34.10
2019-05-15T11:30:49.794Z,34.20
2019-05-15T11:33:19.475Z,33.10
2019-05-15T11:36:01.226Z,33.30
2019-05-15T11:38:20.163Z,34.30
2019-05-15T11:40:49.588Z,33.80
2019-05-15T11:43:19.914Z,35.30
2019-05-15T11:45:50.701Z,34.30
2019-05-15T11:48:20.758Z,33.60
2019-05-15T11:50:50.699Z,33.40
2019-05-15T11:53:20.159Z,35.20
2019-05-15T11:55:50.623Z,34.70
2019-05-15T11:58:20.022Z,33.90
2019-05-15T12:00:49.470Z,34.20
2019-05-15T12:03:19.830Z,34.80
2019-05-15T12:05:49.229Z,34.10
2019-05-15T12:08:18.853Z,34.60
2019-05-15T12:10:48.389Z,34.20
2019-05-15T12:13:18.926Z,34.40
2019-05-15T12:15:48.814Z,34.00
2019-05-15T12:18:19.415Z,34.20
2019-05-15T12:20:48.913Z,34.20
2019-05-15T12:23:20.002Z,33.60
2019-05-15T12:25:49.460Z,34.20
2019-05-15T12:28:18.913Z,34.10
2019-05-15T12:30:49.171Z,34.10
2019-05-15T12:33:18.953Z,33.00
2019-05-15T12:35:50.610Z,34.40
2019-05-15T12:38:19.633Z,34.00
2019-05-15T13:01:17.809Z,33.90
2019-05-15T13:03:45.603Z,33.30
2019-05-15T13:06:15.013Z,32.60
2019-05-15T13:08:44.452Z,33.00
2019-05-15T13:11:15.193Z,33.70
2019-05-15T13:13:44.913Z,31.80
2019-05-15T13:16:14.303Z,32.40
2019-05-15T13:18:43.756Z,32.30
2019-05-15T13:21:13.147Z,32.00
2019-05-15T13:23:42.600Z,32.90
2019-05-15T13:26:23.031Z,31.90
2019-05-15T13:28:58.328Z,31.20
2019-05-15T13:31:28.987Z,32.10
2019-05-15T13:33:58.910Z,32.50
2019-05-15T13:36:28.944Z,31.60
2019-05-15T13:38:58.460Z,31.70
2019-05-15T13:41:28.432Z,31.90
2019-05-15T13:43:58.520Z,32.40
2019-05-15T13:46:29.006Z,31.70
2019-05-15T13:48:59.534Z,30.50
2019-05-15T13:51:30.393Z,31.20
2019-05-15T13:54:00.758Z,31.00
2019-05-15T13:56:30.142Z,30.90
2019-05-15T13:59:00.615Z,32.20
2019-05-15T14:01:30.011Z,30.60
2019-05-15T14:03:59.471Z,30.20
2019-05-15T14:06:28.998Z,29.30
2019-05-15T14:08:58.425Z,30.00
2019-05-15T14:11:30.941Z,30.70
2019-05-15T14:13:59.554Z,31.20
2019-05-15T14:16:30.359Z,31.70
2019-05-15T14:18:59.750Z,29.50
2019-05-15T14:21:29.981Z,30.50
2019-05-15T14:24:01.484Z,30.00
2019-05-15T14:26:30.748Z,29.40
2019-05-15T14:29:00.202Z,30.20
2019-05-15T14:31:29.680Z,29.90
2019-05-15T14:33:59.150Z,29.50
2019-05-15T14:36:28.882Z,29.10
2019-05-15T14:38:58.793Z,29.60
2019-05-15T14:41:29.442Z,29.70
2019-05-15T14:44:13.224Z,30.30
2019-05-15T14:46:30.089Z,29.40
2019-05-15T14:48:59.535Z,29.30
2019-05-15T14:51:28.997Z,28.90
2019-05-15T14:53:59.411Z,29.40
2019-05-15T14:56:28.887Z,28.90
2019-05-15T14:58:58.665Z,28.90
2019-05-15T15:01:28.129Z,28.20
2019-05-15T15:03:58.150Z,28.10
2019-05-15T15:06:27.758Z,28.80
2019-05-15T15:08:59.282Z,28.40
2019-05-15T15:11:28.640Z,28.70
2019-05-15T15:13:58.061Z,28.90
2019-05-15T15:16:29.257Z,29.50
2019-05-15T15:18:58.777Z,28.70
2019-05-15T15:21:29.290Z,28.50
2019-05-15T15:23:58.960Z,29.00
2019-05-15T15:26:28.391Z,28.60
2019-05-15T15:28:59.091Z,28.60
2019-05-15T15:31:28.998Z,28.00
2019-05-15T15:33:58.643Z,28.00
2019-05-15T15:36:28.612Z,28.30
2019-05-15T15:38:58.823Z,27.80
2019-05-15T15:41:28.673Z,28.00
2019-05-15T15:43:58.819Z,28.10
2019-05-15T15:46:28.905Z,28.40
2019-05-15T15:48:59.264Z,29.00
2019-05-15T15:51:29.072Z,28.30
2019-05-15T15:53:58.475Z,28.20
2019-05-15T15:56:29.089Z,28.10
2019-05-15T15:58:59.454Z,28.70
2019-05-15T16:01:43.403Z,28.70
2019-05-15T16:04:12.869Z,28.00
2019-05-15T16:06:42.255Z,28.30
2019-05-15T16:09:12.297Z,28.70
2019-05-15T16:11:41.764Z,28.70
2019-05-15T16:14:11.657Z,28.20
2019-05-15T16:16:41.145Z,28.10
2019-05-15T16:19:10.640Z,28.60
2019-05-15T16:21:40.094Z,29.40
2019-05-15T16:24:17.371Z,28.70
2019-05-15T16:26:40.651Z,29.10
2019-05-15T16:29:10.117Z,29.00
2019-05-15T16:31:39.580Z,28.40
2019-05-15T16:34:09.040Z,29.10
2019-05-15T16:36:38.681Z,29.20
2019-05-15T16:39:11.634Z,29.70
2019-05-15T16:41:39.394Z,32.30
2019-05-15T16:44:08.868Z,32.60
2019-05-15T16:46:39.290Z,31.60
2019-05-15T16:49:08.854Z,32.50
2019-05-15T16:51:38.473Z,34.50
2019-05-15T16:54:08.812Z,35.10
2019-05-15T16:56:40.111Z,34.30
2019-05-15T16:59:09.679Z,33.70
2019-05-15T17:01:53.246Z,35.40
2019-05-15T17:04:22.724Z,34.00
2019-05-15T17:06:52.108Z,35.90
2019-05-15T17:09:21.946Z,34.80
2019-05-15T17:11:51.558Z,31.90
2019-05-15T17:14:21.431Z,30.60
2019-05-15T17:16:50.904Z,32.80
2019-05-15T17:19:20.390Z,35.10
2019-05-15T17:21:49.799Z,33.90
2019-05-15T17:24:19.259Z,31.80
2019-05-15T17:26:48.792Z,30.60
2019-05-15T17:29:18.677Z,30.70
2019-05-15T17:31:48.811Z,30.00
2019-05-15T17:34:18.499Z,29.70
2019-05-15T17:36:49.009Z,29.30
2019-05-15T17:39:27.036Z,29.50
2019-05-15T17:41:49.724Z,29.30
2019-05-15T17:44:19.196Z,29.30
2019-05-15T17:46:49.070Z,29.70
2019-05-15T17:49:18.659Z,29.10
2019-05-15T17:51:48.905Z,29.10
2019-05-15T17:54:18.415Z,29.20
2019-05-15T17:56:48.947Z,29.40
2019-05-15T17:59:18.572Z,29.50
2019-05-15T18:01:49.158Z,29.30
2019-05-15T18:04:19.191Z,29.50
2019-05-15T18:06:48.736Z,29.80
2019-05-15T18:09:19.200Z,29.70
2019-05-15T18:11:48.660Z,29.30
2019-05-15T18:14:18.048Z,29.60
2019-05-15T18:16:48.768Z,29.40
2019-05-15T18:19:18.887Z,29.50
2019-05-15T18:21:49.816Z,29.50
2019-05-15T18:24:19.464Z,29.30
2019-05-15T18:26:48.982Z,30.00
2019-05-15T18:29:18.604Z,29.70
2019-05-15T18:31:48.280Z,29.30
2019-05-15T18:34:18.787Z,29.10
2019-05-15T18:36:49.586Z,29.30
2019-05-15T18:39:19.049Z,28.90
2019-05-15T18:41:48.625Z,28.90
2019-05-15T18:44:18.847Z,29.60
2019-05-15T18:46:49.514Z,29.10
2019-05-15T18:49:19.140Z,29.90
2019-05-15T18:51:48.540Z,29.30
2019-05-15T18:54:18.925Z,29.70
2019-05-15T18:56:49.157Z,29.60
2019-05-15T18:59:18.768Z,29.10
2019-05-15T19:01:48.586Z,29.30
2019-05-15T19:04:18.461Z,29.80
2019-05-15T19:06:48.003Z,29.40
2019-05-15T19:09:18.878Z,29.30
2019-05-15T19:11:48.747Z,29.40
2019-05-15T19:14:19.196Z,29.90
2019-05-15T19:16:50.060Z,30.40
2019-05-15T19:19:19.443Z,30.00
2019-05-15T19:21:49.023Z,30.60
2019-05-15T19:24:18.649Z,31.00
2019-05-15T19:26:50.112Z,31.90
2019-05-15T19:29:19.492Z,33.10
2019-05-15T19:31:49.170Z,32.30
2019-05-15T19:34:19.049Z,33.50
2019-05-15T19:36:48.778Z,34.50
2019-05-15T19:39:18.658Z,34.50
2019-05-15T19:41:48.501Z,34.90
2019-05-15T19:44:18.107Z,35.50
2019-05-15T19:46:47.985Z,35.50
2019-05-15T19:49:18.043Z,36.20
2019-05-15T19:51:48.777Z,36.30
2019-05-15T19:54:18.496Z,36.10
2019-05-15T19:56:48.278Z,36.40
2019-05-15T19:59:22.431Z,36.30
2019-05-15T20:01:51.075Z,36.50
2019-05-15T20:04:20.822Z,37.20
2019-05-15T20:06:50.425Z,36.60
2019-05-15T20:09:20.103Z,36.80
2019-05-15T20:11:49.517Z,37.00
2019-05-15T20:14:19.053Z,37.50
2019-05-15T20:16:48.736Z,37.30
2019-05-15T20:19:18.463Z,37.70
2019-05-15T20:21:48.632Z,37.90
2019-05-15T20:24:18.315Z,37.60
2019-05-15T20:26:48.912Z,37.90
2019-05-15T20:29:18.701Z,38.90
2019-05-15T20:31:48.472Z,37.90
2019-05-15T20:34:19.203Z,37.90
2019-05-15T20:36:48.934Z,38.40
2019-05-15T20:39:18.420Z,38.30
2019-05-15T20:41:48.713Z,38.40
2019-05-15T20:44:18.393Z,38.50
2019-05-15T20:46:50.670Z,38.90
2019-05-15T20:49:18.979Z,39.00
2019-05-15T20:51:49.000Z,39.40
2019-05-15T20:54:18.487Z,39.70
2019-05-15T20:56:49.008Z,39.90
2019-05-15T20:59:18.581Z,39.80
2019-05-15T21:01:48.347Z,40.30
2019-05-15T21:04:22.437Z,40.30
2019-05-15T21:06:51.317Z,40.60
2019-05-15T21:09:20.783Z,40.60
2019-05-15T21:11:50.301Z,40.70
2019-05-15T21:14:19.689Z,41.10
2019-05-15T21:16:49.165Z,41.00
2019-05-15T21:19:19.042Z,41.20
2019-05-15T21:21:48.561Z,41.40
2019-05-15T21:24:18.354Z,41.40
2019-05-15T21:26:49.044Z,41.50
2019-05-15T21:29:18.639Z,41.70
2019-05-15T21:31:49.002Z,41.70
2019-05-15T21:34:33.458Z,41.80
2019-05-15T21:36:52.116Z,41.90
2019-05-15T21:39:20.943Z,41.90
2019-05-15T21:41:50.394Z,42.10
2019-05-15T21:44:19.873Z,42.40
2019-05-15T21:46:50.166Z,42.10
2019-05-15T21:49:19.728Z,42.30
2019-05-15T21:51:49.193Z,42.30
2019-05-15T21:54:18.684Z,42.50
2019-05-15T21:56:50.476Z,42.60
2019-05-15T21:59:38.573Z,42.50
2019-05-15T22:02:09.079Z,42.60
2019-05-15T22:04:51.734Z,42.70
2019-05-15T22:07:23.628Z,42.70
2019-05-15T22:09:53.152Z,42.90
2019-05-15T22:12:22.537Z,43.00
2019-05-15T22:14:51.927Z,43.00
2019-05-15T22:17:21.380Z,42.50
2019-05-15T22:19:51.122Z,42.00
2019-05-15T22:22:20.568Z,42.50
2019-05-15T22:24:49.960Z,42.70
2019-05-15T22:27:21.124Z,42.80
2019-05-15T22:29:50.624Z,43.00
2019-05-15T22:32:20.217Z,43.20
2019-05-15T22:35:05.676Z,43.70
2019-05-15T22:37:21.654Z,43.70
2019-05-15T22:39:51.391Z,44.00
2019-05-15T22:42:20.853Z,43.90
2019-05-15T22:44:50.320Z,43.90
2019-05-15T22:47:20.005Z,43.90
2019-05-15T22:49:50.726Z,44.00
2019-05-15T22:52:20.480Z,43.90
2019-05-15T22:54:49.939Z,44.00
2019-05-15T22:57:19.336Z,44.20
2019-05-15T22:59:48.817Z,44.20
2019-05-15T23:02:18.263Z,44.80
2019-05-15T23:04:47.820Z,44.20
2019-05-15T23:07:18.920Z,44.40
2019-05-15T23:09:48.965Z,44.30
2019-05-15T23:12:38.366Z,44.30
2019-05-15T23:15:08.836Z,44.50
2019-05-15T23:17:38.773Z,44.50
2019-05-15T23:20:09.191Z,44.90
2019-05-15T23:22:38.796Z,44.60
2019-05-15T23:25:08.892Z,44.70
2019-05-15T23:27:38.456Z,45.10
2019-05-15T23:30:08.962Z,44.90
2019-05-15T23:32:39.377Z,45.20
2019-05-15T23:35:10.101Z,45.10
2019-05-15T23:37:39.515Z,45.20
2019-05-15T23:40:09.430Z,45.20
2019-05-15T23:42:39.317Z,45.20
2019-05-15T23:45:09.352Z,45.20
2019-05-15T23:47:38.754Z,45.60
2019-05-15T23:50:08.287Z,45.40
2019-05-15T23:52:38.571Z,45.60
2019-05-15T23:55:08.759Z,45.60
2019-05-15T23:57:39.267Z,45.40
